Time;durP1;ratioP1;P1;durP2;ratioP2;P2;SDS_P1;SDS_P2;PMS_P1;PMS_P2;Temp;Humidity;BMP_temperature;BMP_pressure;BME280_temperature;BME280_humidity;BME280_pressure;Samples;Min_cycle;Max_cycle;Signal;HPM_P1;HPM_P2
2023/12/24 00:00:25;;;;;;;2.40;1.10;;;;;;;3.43;72.00;99010.69;5037311;27;96836;-86
2023/12/24 00:02:50;;;;;;;5.23;1.57;;;;;;;3.44;71.35;99021.03;5036143;27;97603;-86
2023/12/24 00:05:16;;;;;;;3.80;1.50;;;;;;;3.32;71.36;98995.41;5016814;28;97334;-86
2023/12/24 00:07:41;;;;;;;1.93;1.10;;;;;;;3.52;71.45;99028.59;5015494;28;98019;-85
2023/12/24 00:10:07;;;;;;;3.00;1.70;;;;;;;3.39;70.97;98982.22;5019735;27;96908;-86
2023/12/24 00:12:32;;;;;;;3.03;1.30;;;;;;;3.64;70.99;99025.72;5029945;27;98353;-86
2023/12/24 00:15:00;;;;;;;3.93;1.30;;;;;;;3.62;70.85;99028.31;5048912;27;98420;-86
2023/12/24 00:17:25;;;;;;;6.43;2.80;;;;;;;3.58;70.73;99025.88;5020220;27;96707;-86
2023/12/24 00:19:51;;;;;;;5.03;2.17;;;;;;;3.58;70.61;99015.50;5013699;27;96941;-87
2023/12/24 00:22:16;;;;;;;7.47;2.20;;;;;;;3.54;70.92;99019.03;5032698;27;101280;-85
2023/12/24 00:24:43;;;;;;;8.10;3.27;;;;;;;3.56;70.89;99038.03;5020114;27;98143;-86
2023/12/24 00:27:09;;;;;;;16.27;4.53;;;;;;;3.45;70.94;99019.28;5016602;28;96934;-86
2023/12/24 00:29:36;;;;;;;16.63;4.43;;;;;;;3.55;71.00;99036.31;5000673;28;96911;-86
2023/12/24 00:32:01;;;;;;;13.67;4.00;;;;;;;3.53;71.07;99041.53;5018582;28;98520;-86
2023/12/24 00:34:27;;;;;;;11.57;3.60;;;;;;;3.42;70.70;99019.38;5020199;27;98325;-85
2023/12/24 00:36:52;;;;;;;8.90;3.37;;;;;;;3.58;70.72;99041.44;5025494;27;96686;-86
2023/12/24 00:39:18;;;;;;;10.33;3.67;;;;;;;3.69;70.71;99038.53;5005186;27;97038;-86
2023/12/24 00:41:43;;;;;;;16.33;5.10;;;;;;;3.53;70.73;99051.09;5019253;27;101082;-85
2023/12/24 00:44:09;;;;;;;11.30;3.47;;;;;;;3.51;70.97;99050.25;5012939;27;100669;-86
2023/12/24 00:46:34;;;;;;;6.93;2.90;;;;;;;3.56;70.92;99057.03;5036570;27;96711;-86
2023/12/24 00:49:00;;;;;;;3.57;1.40;;;;;;;3.54;70.85;99061.41;5036026;27;96776;-86
2023/12/24 00:51:25;;;;;;;4.87;1.90;;;;;;;3.59;70.51;99059.56;4998909;28;99911;-87
2023/12/24 00:53:51;;;;;;;9.07;3.40;;;;;;;3.54;70.83;99069.19;5046109;27;98259;-86
2023/12/24 00:56:16;;;;;;;9.13;3.40;;;;;;;3.43;71.12;99066.00;5002203;27;97707;-86
2023/12/24 00:58:42;;;;;;;12.20;3.67;;;;;;;3.62;70.40;99080.22;5036356;27;96854;-85
2023/12/24 01:01:07;;;;;;;6.10;2.43;;;;;;;3.61;70.68;99072.50;5018889;27;99732;-86
2023/12/24 01:03:33;;;;;;;11.83;5.33;;;;;;;3.43;70.31;99031.44;5018561;27;101207;-86
2023/12/24 01:05:59;;;;;;;8.40;3.43;;;;;;;3.66;70.52;99061.97;5021851;28;96680;-86
2023/12/24 01:08:24;;;;;;;4.13;2.23;;;;;;;3.52;70.42;99070.13;5022421;27;97200;-86
2023/12/24 01:10:50;;;;;;;8.83;2.17;;;;;;;3.55;70.40;99059.66;5049537;27;98248;-86
2023/12/24 01:13:18;;;;;;;5.80;2.00;;;;;;;3.55;70.61;99072.63;5020025;27;101811;-86
2023/12/24 01:15:47;;;;;;;5.80;2.40;;;;;;;3.49;70.91;99060.69;5023517;27;97057;-86
2023/12/24 01:18:14;;;;;;;6.23;2.73;;;;;;;3.58;70.20;99065.66;5021351;27;96883;-86
2023/12/24 01:20:40;;;;;;;6.30;2.10;;;;;;;3.57;70.82;99087.28;5021832;27;101448;-86
2023/12/24 01:23:05;;;;;;;7.00;2.43;;;;;;;3.53;70.72;99080.47;5022159;27;101494;-86
2023/12/24 01:25:31;;;;;;;6.87;2.10;;;;;;;3.73;70.52;99089.50;5032863;28;96718;-86
2023/12/24 01:27:56;;;;;;;5.40;2.17;;;;;;;3.71;70.11;99091.28;5003379;28;97036;-86
2023/12/24 01:30:22;;;;;;;4.13;2.30;;;;;;;3.54;70.34;99065.75;5022320;27;97938;-86
2023/12/24 01:32:48;;;;;;;5.20;2.90;;;;;;;3.84;70.19;99093.53;5011343;28;99722;-86
2023/12/24 01:35:13;;;;;;;5.03;2.17;;;;;;;3.54;70.07;99035.44;5022313;27;96835;-86
2023/12/24 01:37:39;;;;;;;3.97;2.00;;;;;;;3.61;69.90;99067.31;5022575;27;96970;-86
2023/12/24 01:40:05;;;;;;;2.50;1.27;;;;;;;3.83;69.98;99084.00;5013482;27;100982;-86
2023/12/24 01:42:30;;;;;;;2.50;1.20;;;;;;;3.70;70.40;99087.00;5031816;27;100585;-85
2023/12/24 01:44:56;;;;;;;1.80;1.10;;;;;;;3.73;70.28;99092.94;5021840;27;96963;-86
2023/12/24 01:47:22;;;;;;;2.00;1.20;;;;;;;3.74;70.08;99096.38;5000149;27;96891;-86
2023/12/24 01:49:48;;;;;;;1.63;0.97;;;;;;;3.76;70.22;99086.81;5052465;27;97854;-86
2023/12/24 01:52:15;;;;;;;2.83;1.20;;;;;;;3.61;69.80;99075.94;5016074;27;101575;-87
2023/12/24 01:54:41;;;;;;;1.90;1.17;;;;;;;3.75;69.68;99096.38;5035728;28;96677;-86
2023/12/24 01:57:07;;;;;;;2.07;1.00;;;;;;;3.75;70.25;99079.91;5038963;27;96893;-86
2023/12/24 01:59:33;;;;;;;2.70;1.17;;;;;;;3.78;69.78;99079.81;5015679;28;97434;-86
2023/12/24 02:01:59;;;;;;;3.73;1.30;;;;;;;3.70;70.25;99077.44;5003751;27;98035;-87
2023/12/24 02:04:25;;;;;;;3.70;1.20;;;;;;;3.65;70.05;99063.72;5017518;27;96737;-86
2023/12/24 02:06:50;;;;;;;3.50;1.50;;;;;;;3.76;70.02;99082.47;5022386;27;96882;-87
2023/12/24 02:09:16;;;;;;;5.77;1.70;;;;;;;3.74;69.86;99079.06;5017355;27;101518;-87
2023/12/24 02:11:42;;;;;;;3.93;1.80;;;;;;;3.70;69.92;99072.25;5005078;27;101134;-87
2023/12/24 02:14:07;;;;;;;3.53;2.67;;;;;;;3.84;69.61;99087.47;5009435;27;96749;-86
2023/12/24 02:16:35;;;;;;;2.50;1.40;;;;;;;3.78;70.11;99085.03;5019507;27;96856;-87
2023/12/24 02:19:01;;;;;;;4.30;1.67;;;;;;;3.59;70.03;99054.34;5036640;27;97982;-87
2023/12/24 02:21:27;;;;;;;3.63;1.13;;;;;;;3.65;69.91;99048.16;5019801;27;101607;-87
2023/12/24 02:23:52;;;;;;;2.50;1.23;;;;;;;3.78;70.00;99085.03;5014583;27;96796;-87
2023/12/24 02:26:36;;;;;;;2.70;1.43;;;;;;;3.61;70.06;99062.13;5019204;28;96859;-86
2023/12/24 02:29:17;;;;;;;2.70;1.33;;;;;;;3.74;70.25;99079.06;5010423;27;100842;-86
2023/12/24 02:31:45;;;;;;;2.97;1.58;;;;;;;3.69;70.27;99077.47;5021421;27;100869;-87
2023/12/24 02:34:14;;;;;;;3.37;1.70;;;;;;;3.80;70.32;99088.44;5021570;27;96837;-87
2023/12/24 02:36:40;;;;;;;2.57;1.37;;;;;;;3.79;70.20;99082.41;5005129;27;96797;-86
2023/12/24 02:39:06;;;;;;;3.70;1.80;;;;;;;3.72;70.11;99073.06;5023144;28;99768;-87
2023/12/24 02:41:31;;;;;;;4.97;1.67;;;;;;;3.77;70.10;99088.53;5019274;27;101060;-87
2023/12/24 02:43:57;;;;;;;1.90;1.30;;;;;;;3.78;70.02;99069.44;5030830;27;96807;-87
2023/12/24 02:46:22;;;;;;;3.43;1.93;;;;;;;3.77;70.11;99071.19;5055113;27;96751;-87
2023/12/24 02:48:49;;;;;;;4.10;1.50;;;;;;;3.53;70.03;99041.53;5036504;27;98505;-87
2023/12/24 02:51:15;;;;;;;2.77;1.50;;;;;;;3.78;69.93;99079.81;5024401;28;97625;-87
2023/12/24 02:53:40;;;;;;;2.20;1.43;;;;;;;3.73;69.99;99087.75;5012783;28;96773;-87
2023/12/24 02:56:06;;;;;;;2.30;1.57;;;;;;;3.51;70.60;99071.00;5025025;28;96843;-87
2023/12/24 02:58:31;;;;;;;2.97;1.60;;;;;;;3.66;70.70;99080.16;5013186;28;97931;-87
2023/12/24 03:00:57;;;;;;;3.70;1.50;;;;;;;3.73;70.25;99067.00;4976038;28;100876;-87
2023/12/24 03:03:22;;;;;;;3.40;2.10;;;;;;;3.74;70.17;99065.25;4986865;28;96724;-87
2023/12/24 03:05:48;;;;;;;2.67;1.80;;;;;;;3.80;70.15;99072.84;4996033;28;96815;-87
2023/12/24 03:08:15;;;;;;;4.93;1.70;;;;;;;3.82;69.72;99073.69;4994284;28;100200;-87
2023/12/24 03:10:40;;;;;;;4.17;1.90;;;;;;;3.88;69.84;99086.50;4997353;28;101470;-87
2023/12/24 03:13:06;;;;;;;3.73;1.63;;;;;;;3.75;69.55;99053.94;4995980;28;96788;-87
2023/12/24 03:15:31;;;;;;;2.60;1.50;;;;;;;3.76;69.68;99048.72;4998239;28;96767;-87
2023/12/24 03:17:57;;;;;;;5.60;1.83;;;;;;;3.72;69.56;99043.66;4972192;28;100720;-86
2023/12/24 03:20:22;;;;;;;3.30;1.70;;;;;;;3.92;69.53;99076.88;4999266;28;96973;-87
2023/12/24 03:22:48;;;;;;;4.80;2.30;;;;;;;4.04;69.53;99073.94;4992815;28;96711;-86
2023/12/24 03:25:13;;;;;;;3.53;1.67;;;;;;;3.92;69.05;99062.16;4985821;28;96961;-87
2023/12/24 03:27:39;;;;;;;4.27;1.80;;;;;;;3.90;69.36;99056.16;5007741;28;97970;-86
2023/12/24 03:30:05;;;;;;;4.10;1.60;;;;;;;3.90;69.20;99061.34;4996628;28;100259;-86
2023/12/24 03:32:30;;;;;;;6.83;1.50;;;;;;;3.75;69.67;99053.94;4980863;28;96852;-87
2023/12/24 03:34:58;;;;;;;2.60;1.30;;;;;;;3.75;69.91;99065.22;5009808;28;96907;-87
2023/12/24 03:37:24;;;;;;;2.43;1.40;;;;;;;3.77;69.76;99066.00;4977795;28;100513;-87
2023/12/24 03:39:49;;;;;;;2.87;1.23;;;;;;;3.85;69.53;99064.06;4992878;28;101105;-87
2023/12/24 03:42:15;;;;;;;4.57;1.63;;;;;;;3.74;69.97;99065.25;4975857;28;97646;-87
2023/12/24 03:44:40;;;;;;;2.83;1.40;;;;;;;3.73;70.12;99068.72;4994797;28;97001;-87
2023/12/24 03:47:06;;;;;;;2.53;1.53;;;;;;;3.79;69.89;99068.56;4987281;28;101465;-88
2023/12/24 03:49:31;;;;;;;2.90;1.00;;;;;;;3.94;69.61;99075.94;4997386;28;96954;-87
2023/12/24 03:51:56;;;;;;;2.90;0.97;;;;;;;3.93;69.22;99079.44;5004197;28;96892;-88
2023/12/24 03:54:22;;;;;;;4.57;1.37;;;;;;;4.02;69.23;99079.19;5013819;28;96915;-88
2023/12/24 03:56:48;;;;;;;3.07;1.10;;;;;;;4.03;69.00;99064.47;4980333;28;101132;-88
2023/12/24 03:59:13;;;;;;;1.93;1.00;;;;;;;3.88;69.31;99052.75;5006045;28;100337;-87
2023/12/24 04:01:39;;;;;;;2.83;1.20;;;;;;;3.83;69.67;99062.41;5012732;28;97205;-88
2023/12/24 04:04:05;;;;;;;2.90;1.10;;;;;;;3.89;69.44;99057.03;4993154;28;96913;-88
2023/12/24 04:06:30;;;;;;;1.87;1.03;;;;;;;3.88;69.53;99062.28;5012061;28;98030;-87
2023/12/24 04:08:56;;;;;;;5.00;1.40;;;;;;;3.95;69.43;99080.22;5009106;28;99321;-89
2023/12/24 04:11:22;;;;;;;2.83;1.17;;;;;;;3.79;69.68;99061.63;4994732;28;96872;-88
2023/12/24 04:13:48;;;;;;;5.17;1.63;;;;;;;3.81;69.72;99078.03;4995258;28;96972;-88
2023/12/24 04:16:14;;;;;;;2.40;1.10;;;;;;;3.90;69.43;99083.84;4995229;28;100393;-88
2023/12/24 04:18:40;;;;;;;1.47;0.90;;;;;;;3.90;69.13;99076.06;4992720;28;98145;-88
2023/12/24 04:21:05;;;;;;;3.13;1.40;;;;;;;3.82;69.29;99052.91;4995426;28;96734;-89
2023/12/24 04:23:31;;;;;;;4.10;1.20;;;;;;;3.80;68.93;99046.91;5009987;28;97067;-88
2023/12/24 04:25:57;;;;;;;3.37;1.30;;;;;;;3.93;69.04;99058.69;5007663;28;98423;-88
2023/12/24 04:28:24;;;;;;;2.50;1.00;;;;;;;3.94;68.89;99068.16;5001120;28;100393;-89
2023/12/24 04:30:49;;;;;;;5.57;1.23;;;;;;;3.86;69.63;99057.13;5013158;28;97186;-88
2023/12/24 04:33:15;;;;;;;3.27;1.00;;;;;;;3.90;69.07;99068.25;5013639;28;96802;-87
2023/12/24 04:35:41;;;;;;;1.67;1.00;;;;;;;3.91;69.36;99067.41;4993036;28;101352;-89
2023/12/24 04:38:06;;;;;;;3.10;1.30;;;;;;;3.80;69.33;99060.72;5009877;28;100185;-88
2023/12/24 04:40:32;;;;;;;2.50;0.97;;;;;;;3.85;69.19;99060.63;4979258;28;96689;-88
2023/12/24 04:42:57;;;;;;;2.60;0.97;;;;;;;3.82;69.21;99060.69;5027676;27;96760;-88
2023/12/24 04:45:23;;;;;;;3.20;1.30;;;;;;;3.89;69.57;99056.19;5012972;28;100250;-89
2023/12/24 04:47:49;;;;;;;3.43;1.30;;;;;;;3.85;69.51;99055.44;5027202;27;98223;-89
2023/12/24 04:50:15;;;;;;;1.57;0.90;;;;;;;3.86;69.30;99064.91;5016350;28;96895;-87
2023/12/24 04:52:42;;;;;;;1.20;0.87;;;;;;;3.77;69.17;99053.03;5003396;28;96835;-88
2023/12/24 04:55:08;;;;;;;2.57;1.10;;;;;;;3.86;69.18;99059.72;5024288;27;98409;-87
2023/12/24 04:57:34;;;;;;;4.20;1.13;;;;;;;3.71;69.54;99045.41;5023932;27;101283;-88
2023/12/24 04:59:59;;;;;;;2.53;0.90;;;;;;;3.58;69.95;99038.84;5015766;28;97133;-87
2023/12/24 05:02:26;;;;;;;2.60;0.90;;;;;;;3.58;69.82;99036.25;5016447;28;96813;-87
2023/12/24 05:04:54;;;;;;;1.80;0.83;;;;;;;3.48;69.59;99024.38;5011244;28;101409;-89
2023/12/24 05:07:20;;;;;;;2.23;0.90;;;;;;;3.66;70.07;99061.97;5014749;28;98077;-89
2023/12/24 05:09:45;;;;;;;2.70;0.90;;;;;;;3.42;70.52;99050.50;5012800;27;96703;-90
2023/12/24 05:12:11;;;;;;;1.57;0.80;;;;;;;3.41;70.47;99039.28;5027222;27;96758;-88
2023/12/24 05:14:37;;;;;;;1.77;1.20;;;;;;;3.48;70.49;99052.94;4997811;28;101165;-88
2023/12/24 05:17:02;;;;;;;4.13;1.03;;;;;;;3.36;70.61;99030.75;5013964;28;101546;-89
2023/12/24 05:19:28;;;;;;;1.87;0.93;;;;;;;3.42;70.66;99047.91;4990269;28;96805;-89
2023/12/24 05:21:54;;;;;;;2.10;1.10;;;;;;;3.27;70.97;99033.56;5017440;28;96824;-90
2023/12/24 05:24:19;;;;;;;4.57;1.10;;;;;;;3.30;71.19;99042.13;4998117;28;100939;-88
2023/12/24 05:26:45;;;;;;;2.67;1.13;;;;;;;3.23;71.49;99040.59;5012435;28;100941;-88
2023/12/24 05:29:11;;;;;;;2.77;1.23;;;;;;;3.28;71.42;99049.09;4995703;28;97107;-89
2023/12/24 05:31:40;;;;;;;3.00;1.40;;;;;;;3.32;71.37;99050.72;5030657;28;97099;-88
2023/12/24 05:34:06;;;;;;;2.83;1.20;;;;;;;3.19;71.12;99038.94;5016554;28;98044;-89
2023/12/24 05:36:33;;;;;;;2.77;1.17;;;;;;;3.09;71.36;99027.94;5015926;28;97300;-88
2023/12/24 05:38:59;;;;;;;1.77;0.90;;;;;;;3.21;71.38;99028.53;5010943;28;98143;-89
2023/12/24 05:41:24;;;;;;;2.73;1.10;;;;;;;3.17;71.98;99033.81;5029474;27;97351;-89
2023/12/24 05:43:50;;;;;;;1.50;0.90;;;;;;;3.33;71.85;99038.59;5032917;27;97449;-88
2023/12/24 05:46:15;;;;;;;1.90;1.10;;;;;;;3.47;71.27;99040.84;5011095;28;100683;-87
2023/12/24 05:48:41;;;;;;;2.43;1.20;;;;;;;3.51;71.00;99040.72;5015956;28;96707;-87
2023/12/24 05:51:07;;;;;;;4.03;1.60;;;;;;;3.38;71.04;99034.16;5032408;27;96738;-89
2023/12/24 05:53:32;;;;;;;2.37;1.70;;;;;;;3.10;71.35;98982.13;4998827;28;100984;-88
2023/12/24 05:55:59;;;;;;;4.63;2.17;;;;;;;3.18;71.66;99006.13;5015508;28;100718;-88
2023/12/24 05:58:25;;;;;;;3.53;1.73;;;;;;;3.07;72.06;99029.72;5016079;28;97210;-87
2023/12/24 06:00:52;;;;;;;4.20;1.90;;;;;;;2.94;72.61;99015.38;5008390;28;96822;-87
2023/12/24 06:03:17;;;;;;;4.73;1.60;;;;;;;2.79;72.62;98995.81;5026287;27;98026;-88
2023/12/24 06:05:43;;;;;;;5.63;1.70;;;;;;;2.84;72.69;99012.13;5011483;28;98232;-88
2023/12/24 06:08:09;;;;;;;3.47;1.70;;;;;;;2.77;73.29;99014.91;5024177;27;96668;-88
2023/12/24 06:10:34;;;;;;;4.03;1.50;;;;;;;2.75;73.20;99014.06;5033096;28;97164;-88
2023/12/24 06:13:03;;;;;;;2.53;1.50;;;;;;;2.60;73.54;98994.56;5001786;27;100244;-87
2023/12/24 06:15:29;;;;;;;2.43;1.60;;;;;;;2.72;73.74;99018.44;5002134;28;101429;-87
2023/12/24 06:17:54;;;;;;;3.67;1.90;;;;;;;2.69;74.03;99009.88;5008551;28;97032;-88
2023/12/24 06:20:20;;;;;;;3.43;2.20;;;;;;;2.68;73.70;99003.00;5032984;28;96683;-88
2023/12/24 06:22:45;;;;;;;4.93;2.50;;;;;;;2.61;74.20;99016.97;5009023;28;99972;-88
2023/12/24 06:25:11;;;;;;;4.37;2.83;;;;;;;2.72;73.83;99010.66;5014241;28;100124;-88
2023/12/24 06:27:36;;;;;;;3.50;2.77;;;;;;;2.72;73.88;99008.06;5000144;28;97172;-88
2023/12/24 06:30:02;;;;;;;3.73;2.50;;;;;;;2.77;73.84;98999.34;5017671;28;96939;-88
2023/12/24 06:32:28;;;;;;;9.20;3.07;;;;;;;2.87;73.94;99030.19;5011804;28;102204;-87
2023/12/24 06:34:53;;;;;;;5.00;2.80;;;;;;;2.82;73.74;99015.63;5030372;28;98460;-89
2023/12/24 06:37:19;;;;;;;3.70;2.33;;;;;;;2.86;73.24;99025.91;5014029;27;96694;-88
2023/12/24 06:39:44;;;;;;;3.83;2.60;;;;;;;2.81;73.70;99007.00;5015703;28;96809;-88
2023/12/24 06:42:10;;;;;;;2.57;2.00;;;;;;;2.77;73.86;99007.13;5001737;28;101326;-87
2023/12/24 06:44:35;;;;;;;4.50;2.10;;;;;;;2.64;74.05;98991.00;5015328;28;100078;-88
2023/12/24 06:47:01;;;;;;;8.07;2.93;;;;;;;2.52;74.38;98999.06;5033986;28;96708;-88
2023/12/24 06:49:26;;;;;;;8.97;3.63;;;;;;;2.48;74.45;98995.69;5034100;27;97062;-89
2023/12/24 06:51:52;;;;;;;9.53;4.10;;;;;;;2.41;74.93;98992.34;5017622;28;101244;-88
2023/12/24 06:54:17;;;;;;;12.87;5.33;;;;;;;2.54;75.04;99002.47;5000063;27;100330;-88
2023/12/24 06:56:43;;;;;;;11.37;4.43;;;;;;;2.64;74.47;99001.34;5018784;28;96823;-88
2023/12/24 06:59:09;;;;;;;11.33;4.30;;;;;;;2.69;74.81;99013.31;5022130;28;96836;-89
2023/12/24 07:01:34;;;;;;;10.33;3.77;;;;;;;2.75;74.31;99001.13;5034919;27;97616;-88
2023/12/24 07:04:00;;;;;;;10.13;3.63;;;;;;;2.67;74.33;98990.91;5025923;27;97248;-87
2023/12/24 07:06:25;;;;;;;7.63;3.30;;;;;;;2.78;74.05;98999.31;5018558;28;96735;-88
2023/12/24 07:08:51;;;;;;;12.03;4.00;;;;;;;2.88;73.76;98995.63;5018155;28;96789;-87
2023/12/24 07:11:17;;;;;;;7.70;3.93;;;;;;;2.93;73.87;98996.34;5027466;27;97184;-89
2023/12/24 07:13:43;;;;;;;8.13;3.50;;;;;;;2.77;73.59;98983.81;5029638;28;101578;-88
2023/12/24 07:16:08;;;;;;;8.33;3.93;;;;;;;2.95;73.53;98996.31;5018614;28;96672;-88
2023/12/24 07:18:34;;;;;;;9.90;4.30;;;;;;;2.92;73.60;98994.66;5014109;28;96855;-88
2023/12/24 07:20:59;;;;;;;8.47;4.23;;;;;;;2.93;73.70;98990.31;5025923;28;101419;-88
2023/12/24 07:23:25;;;;;;;7.83;3.27;;;;;;;2.97;73.34;98971.22;5012698;28;100332;-88
2023/12/24 07:25:50;;;;;;;5.63;2.83;;;;;;;2.75;73.85;98975.19;5017882;27;96603;-88
2023/12/24 07:28:16;;;;;;;5.93;2.60;;;;;;;2.89;73.58;98981.75;5012595;28;97188;-88
2023/12/24 07:30:42;;;;;;;5.80;2.67;;;;;;;2.91;73.78;98984.34;5013746;28;100064;-87
2023/12/24 07:33:07;;;;;;;4.47;2.57;;;;;;;2.98;73.93;98996.25;5030220;28;97529;-87
2023/12/24 07:35:33;;;;;;;4.43;2.23;;;;;;;2.94;73.48;98994.63;5027640;28;96776;-87
2023/12/24 07:37:58;;;;;;;5.80;2.60;;;;;;;2.57;73.82;98948.84;5000114;28;97591;-88
2023/12/24 07:40:24;;;;;;;3.90;2.40;;;;;;;2.76;74.21;98975.16;5010940;28;101334;-88
2023/12/24 07:42:49;;;;;;;4.00;2.10;;;;;;;2.60;74.67;98981.59;5032062;28;101070;-88
2023/12/24 07:45:15;;;;;;;4.47;2.30;;;;;;;2.53;74.49;98995.56;5015500;28;96650;-87
2023/12/24 07:47:40;;;;;;;4.17;2.33;;;;;;;2.53;75.11;98995.56;5015538;28;96726;-87
2023/12/24 07:50:07;;;;;;;4.17;1.70;;;;;;;2.58;75.20;99004.94;5037191;27;98149;-87
2023/12/24 07:52:33;;;;;;;4.23;2.07;;;;;;;2.50;75.33;98991.28;5018253;27;98011;-88
2023/12/24 07:54:58;;;;;;;3.87;2.50;;;;;;;2.55;75.04;99001.56;5051445;27;96719;-87
2023/12/24 07:57:24;;;;;;;4.27;2.23;;;;;;;2.55;75.36;99005.00;5007041;27;97277;-86
2023/12/24 07:59:49;;;;;;;3.57;2.40;;;;;;;2.14;75.12;98936.00;5036443;27;97535;-88
2023/12/24 08:02:15;;;;;;;4.03;2.33;;;;;;;2.51;75.19;98979.22;5005765;28;97539;-87
2023/12/24 08:04:43;;;;;;;5.80;3.27;;;;;;;2.44;75.49;98971.59;5026410;27;97131;-89
2023/12/24 08:07:09;;;;;;;5.30;3.33;;;;;;;2.59;75.79;98995.41;5022720;27;97062;-88
2023/12/24 08:09:34;;;;;;;6.30;3.37;;;;;;;2.54;75.50;98971.38;5018484;27;101156;-89
2023/12/24 08:12:00;;;;;;;5.13;2.40;;;;;;;2.48;76.06;98983.56;4998338;27;101406;-88
2023/12/24 08:14:25;;;;;;;4.27;2.70;;;;;;;2.49;75.82;98984.41;5036827;27;96753;-87
2023/12/24 08:16:51;;;;;;;5.13;2.60;;;;;;;2.47;76.09;98983.59;4998666;27;97346;-88
2023/12/24 08:19:16;;;;;;;4.67;2.77;;;;;;;2.34;75.94;98962.31;5015158;28;101050;-86
2023/12/24 08:21:42;;;;;;;5.60;2.83;;;;;;;2.43;76.11;98977.63;4990682;27;99975;-89
2023/12/24 08:24:08;;;;;;;6.50;3.03;;;;;;;2.53;76.14;98974.84;5000547;27;97440;-89
2023/12/24 08:26:34;;;;;;;4.80;3.13;;;;;;;2.56;76.13;98972.16;5017123;27;97043;-84
2023/12/24 08:28:59;;;;;;;7.63;4.23;;;;;;;2.46;76.12;98971.53;5014290;27;98359;-88
2023/12/24 08:31:25;;;;;;;6.13;3.27;;;;;;;2.49;75.86;98971.47;5035152;27;97625;-87
2023/12/24 08:33:50;;;;;;;5.13;2.93;;;;;;;2.56;75.96;98969.59;5021016;27;97338;-87
2023/12/24 08:36:16;;;;;;;5.83;2.90;;;;;;;2.40;75.81;98966.50;5001966;27;96890;-87
2023/12/24 08:38:42;;;;;;;6.97;3.97;;;;;;;2.44;76.30;98960.34;5052121;27;98356;-87
2023/12/24 08:41:07;;;;;;;5.60;3.30;;;;;;;2.63;75.93;98960.78;5001653;27;102997;-87
2023/12/24 08:43:33;;;;;;;6.90;4.17;;;;;;;2.59;76.14;98954.84;5016680;27;96713;-88
2023/12/24 08:46:00;;;;;;;6.07;3.20;;;;;;;2.51;76.27;98942.94;5018719;27;97271;-88
2023/12/24 08:48:25;;;;;;;4.93;3.40;;;;;;;2.51;76.33;98940.38;5015626;27;100928;-88
2023/12/24 08:50:51;;;;;;;5.27;3.70;;;;;;;2.59;76.48;98949.66;5015281;27;97430;-87
2023/12/24 08:53:16;;;;;;;4.63;3.50;;;;;;;2.50;76.53;98931.72;5018551;27;97445;-87
2023/12/24 08:55:42;;;;;;;6.70;3.80;;;;;;;2.68;76.49;98946.00;5018485;27;96971;-86
2023/12/24 08:58:07;;;;;;;7.23;3.90;;;;;;;2.68;76.25;98931.31;5018020;27;101333;-87
2023/12/24 09:00:33;;;;;;;5.93;3.83;;;;;;;2.76;76.19;98935.44;5008245;27;99803;-87
2023/12/24 09:02:59;;;;;;;8.60;4.17;;;;;;;3.01;76.00;98935.69;5010097;27;97224;-86
2023/12/24 09:05:24;;;;;;;8.77;4.20;;;;;;;2.76;75.77;98907.78;5024855;27;99179;-85
2023/12/24 09:07:50;;;;;;;6.83;3.97;;;;;;;2.98;76.12;98938.34;5020058;27;98065;-87
2023/12/24 09:10:15;;;;;;;5.93;4.00;;;;;;;3.00;75.72;98928.81;5050489;27;98057;-86
2023/12/24 09:12:41;;;;;;;7.40;4.57;;;;;;;2.91;75.61;98915.19;5007396;27;96841;-86
2023/12/24 09:15:07;;;;;;;7.30;3.97;;;;;;;3.02;75.70;98930.44;5014169;27;97022;-85
2023/12/24 09:17:33;;;;;;;7.10;4.37;;;;;;;3.04;75.72;98928.69;5007584;28;100508;-86
2023/12/24 09:19:58;;;;;;;6.50;3.90;;;;;;;3.12;75.17;98912.94;5002660;27;100404;-87
2023/12/24 09:22:24;;;;;;;5.30;3.83;;;;;;;3.09;75.65;98919.03;5024921;27;97132;-89
2023/12/24 09:24:49;;;;;;;6.60;4.00;;;;;;;2.81;75.80;98877.41;5019467;27;97170;-87
2023/12/24 09:27:15;;;;;;;9.87;4.73;;;;;;;2.97;76.03;98908.13;5017709;27;98146;-85
2023/12/24 09:29:40;;;;;;;5.30;3.70;;;;;;;3.10;76.01;98931.09;5015296;27;100325;-85
2023/12/24 09:32:06;;;;;;;7.30;4.40;;;;;;;3.15;75.73;98916.28;5031296;27;96850;-85
2023/12/24 09:34:31;;;;;;;6.90;4.47;;;;;;;3.06;75.94;98894.94;4999888;27;96848;-84
2023/12/24 09:36:57;;;;;;;6.10;4.57;;;;;;;3.29;75.70;98912.50;5037544;27;97982;-86
2023/12/24 09:39:22;;;;;;;8.33;4.90;;;;;;;3.13;75.38;98883.50;5017538;27;101340;-78
2023/12/24 09:41:49;;;;;;;7.43;5.17;;;;;;;3.30;75.75;98914.19;5030013;27;96716;-77
2023/12/24 09:44:14;;;;;;;13.07;7.50;;;;;;;3.41;75.13;98909.56;5016723;27;97364;-76
2023/12/24 09:46:40;;;;;;;10.33;5.73;;;;;;;3.33;75.01;98870.84;5017345;27;98026;-87
2023/12/24 09:49:05;;;;;;;13.33;6.10;;;;;;;3.52;74.46;98904.94;5034127;27;98106;-88
2023/12/24 09:51:32;;;;;;;9.27;5.93;;;;;;;3.56;74.91;98892.72;5017660;27;96887;-88
2023/12/24 09:53:58;;;;;;;12.27;6.50;;;;;;;3.58;74.85;98891.78;5017685;27;96787;-87
2023/12/24 09:56:24;;;;;;;11.17;6.67;;;;;;;3.54;74.65;98879.75;5035293;27;98346;-87
2023/12/24 09:58:50;;;;;;;9.63;6.57;;;;;;;3.52;74.87;98893.66;4999280;27;100236;-86
2023/12/24 10:01:16;;;;;;;13.13;7.23;;;;;;;3.37;75.72;98892.34;5003928;27;97058;-88
2023/12/24 10:03:41;;;;;;;15.17;8.63;;;;;;;3.30;75.79;98881.31;5019241;27;96749;-87
2023/12/24 10:06:08;;;;;;;16.00;7.97;;;;;;;3.28;75.86;98861.50;5018962;27;101908;-86
2023/12/24 10:08:34;;;;;;;12.10;7.37;;;;;;;3.31;76.13;98857.06;5012172;27;101638;-87
2023/12/24 10:11:20;;;;;;;11.50;7.63;;;;;;;3.60;76.01;98876.16;5012422;27;98078;-85
2023/12/24 10:13:47;;;;;;;17.60;9.50;;;;;;;3.62;75.89;98875.22;5013833;27;96840;-87
2023/12/24 10:16:12;;;;;;;20.57;11.70;;;;;;;3.45;75.73;98843.72;5028211;27;98122;-90
2023/12/24 10:18:47;;;;;;;20.17;11.67;;;;;;;3.71;75.79;98858.53;5028570;27;97836;-89
2023/12/24 10:21:12;;;;;;;14.80;10.10;;;;;;;3.70;76.10;98833.47;5030368;27;97434;-86
2023/12/24 10:23:38;;;;;;;11.50;7.43;;;;;;;3.87;75.82;98853.75;5014952;27;96865;-85
2023/12/24 10:26:06;;;;;;;11.97;7.93;;;;;;;3.88;75.55;98852.84;5014607;27;101017;-85
2023/12/24 10:28:33;;;;;;;13.20;7.70;;;;;;;4.00;75.52;98849.88;4982957;27;100533;-87
2023/12/24 10:31:08;;;;;;;16.20;8.40;;;;;;;3.91;75.54;98823.34;5024842;27;98041;-84
2023/12/24 10:33:38;;;;;;;19.57;10.23;;;;;;;3.89;75.46;98807.78;5005202;27;97366;-87
2023/12/24 10:36:04;;;;;;;60.90;35.43;;;;;;;4.20;75.54;98830.22;5024290;27;98480;-87
2023/12/24 10:38:30;;;;;;;35.53;18.57;;;;;;;4.18;75.90;98830.25;5016477;27;99676;-89
2023/12/24 10:40:55;;;;;;;48.83;30.17;;;;;;;4.38;75.52;98815.78;5031014;27;98657;-87
2023/12/24 10:43:21;;;;;;;48.63;30.87;;;;;;;4.47;75.06;98805.94;5013956;27;97272;-89
2023/12/24 10:45:46;;;;;;;22.23;13.10;;;;;;;4.66;75.26;98824.38;5007974;27;102059;-89
2023/12/24 10:48:12;;;;;;;111.67;55.37;;;;;;;4.63;74.92;98798.47;5026513;27;101622;-88
2023/12/24 10:50:38;;;;;;;26.83;14.90;;;;;;;4.71;74.53;98808.59;5026733;27;98046;-87
2023/12/24 10:53:03;;;;;;;20.90;12.00;;;;;;;4.70;74.83;98807.75;5009589;27;98084;-87
2023/12/24 10:55:34;;;;;;;32.73;18.03;;;;;;;4.84;74.30;98809.03;5009701;27;97501;-89
2023/12/24 10:58:00;;;;;;;43.07;22.70;;;;;;;4.76;74.79;98812.75;4992703;27;99659;-87
2023/12/24 11:00:25;;;;;;;44.63;22.43;;;;;;;4.66;75.02;98787.97;5027727;27;96863;-87
2023/12/24 11:02:51;;;;;;;30.03;15.70;;;;;;;4.74;75.11;98801.56;5025249;27;98540;-84
2023/12/24 11:05:46;;;;;;;49.13;25.30;;;;;;;4.88;75.21;98806.25;5021456;27;97644;-85
2023/12/24 11:08:21;;;;;;;73.53;33.53;;;;;;;4.95;75.37;98804.31;4985097;27;98527;-88
2023/12/24 11:10:57;;;;;;;67.17;32.27;;;;;;;4.96;75.26;98788.66;5025165;27;97432;-86
2023/12/24 11:13:32;;;;;;;46.63;22.23;;;;;;;5.10;74.92;98795.13;5007838;27;97368;-88
2023/12/24 11:16:09;;;;;;;56.13;25.77;;;;;;;5.12;75.63;98777.69;5005102;27;102180;-84
2023/12/24 11:18:48;;;;;;;43.47;21.63;;;;;;;5.26;75.10;98785.00;5024315;27;97320;-84
2023/12/24 11:21:15;;;;;;;34.20;15.40;;;;;;;5.34;75.85;98777.75;4988865;27;97530;-87
2023/12/24 11:23:42;;;;;;;22.17;11.87;;;;;;;5.25;76.67;98765.09;5032255;27;97521;-84
2023/12/24 11:26:33;;;;;;;21.33;9.87;;;;;;;5.44;77.31;98772.16;5015760;27;99330;-84
2023/12/24 11:28:59;;;;;;;20.57;9.10;;;;;;;5.38;77.38;98741.16;5025843;27;97493;-87
2023/12/24 11:31:26;;;;;;;14.67;7.60;;;;;;;5.62;77.62;98760.19;5011919;27;96838;-87